sensor_id;sensor_type;location;lat;lon;timestamp;temperature;humidity
35027;DHT22;60696;51.426;6.934;2022-11-20T00:00:48;-1.20;99.90
35027;DHT22;60696;51.426;6.934;2022-11-20T00:03:14;-1.20;99.90
35027;DHT22;60696;51.426;6.934;2022-11-20T00:05:40;-1.10;99.90
35027;DHT22;60696;51.426;6.934;2022-11-20T00:08:05;-1.10;99.90
35027;DHT22;60696;51.426;6.934;2022-11-20T00:10:31;-1.10;99.90
35027;DHT22;60696;51.426;6.934;2022-11-20T00:12:58;-1.10;99.90
35027;DHT22;60696;51.426;6.934;2022-11-20T00:15:24;-1.00;99.90
35027;DHT22;60696;51.426;6.934;2022-11-20T00:17:50;-0.90;99.90
35027;DHT22;60696;51.426;6.934;2022-11-20T00:20:15;-0.90;99.90
35027;DHT22;60696;51.426;6.934;2022-11-20T00:22:41;-0.90;99.90
35027;DHT22;60696;51.426;6.934;2022-11-20T00:25:07;-0.90;99.90
35027;DHT22;60696;51.426;6.934;2022-11-20T00:27:32;-0.90;99.90
35027;DHT22;60696;51.426;6.934;2022-11-20T00:29:58;-0.80;99.90
35027;DHT22;60696;51.426;6.934;2022-11-20T00:32:24;-0.80;99.90
35027;DHT22;60696;51.426;6.934;2022-11-20T00:34:49;-0.80;99.90
35027;DHT22;60696;51.426;6.934;2022-11-20T00:37:15;-0.80;99.90
35027;DHT22;60696;51.426;6.934;2022-11-20T00:39:40;-0.70;99.90
35027;DHT22;60696;51.426;6.934;2022-11-20T00:42:06;-0.60;99.90
35027;DHT22;60696;51.426;6.934;2022-11-20T00:44:31;-0.50;99.90
35027;DHT22;60696;51.426;6.934;2022-11-20T00:46:57;-0.50;99.90
35027;DHT22;60696;51.426;6.934;2022-11-20T00:49:23;-0.50;99.90
35027;DHT22;60696;51.426;6.934;2022-11-20T00:51:48;-0.40;99.90
35027;DHT22;60696;51.426;6.934;2022-11-20T00:54:14;-0.40;99.90
35027;DHT22;60696;51.426;6.934;2022-11-20T00:56:39;-0.40;99.90
35027;DHT22;60696;51.426;6.934;2022-11-20T00:59:05;-0.30;99.90
35027;DHT22;60696;51.426;6.934;2022-11-20T01:01:31;-0.30;99.90
35027;DHT22;60696;51.426;6.934;2022-11-20T01:03:59;-0.20;99.90
35027;DHT22;60696;51.426;6.934;2022-11-20T01:06:36;-0.20;99.90
35027;DHT22;60696;51.426;6.934;2022-11-20T01:09:10;-0.10;99.90
35027;DHT22;60696;51.426;6.934;2022-11-20T01:11:39;-0.20;99.90
35027;DHT22;60696;51.426;6.934;2022-11-20T01:14:07;-0.20;99.90
35027;DHT22;60696;51.426;6.934;2022-11-20T01:16:39;-0.20;99.90
35027;DHT22;60696;51.426;6.934;2022-11-20T01:19:08;-0.40;99.90
35027;DHT22;60696;51.426;6.934;2022-11-20T01:21:37;-0.40;99.90
35027;DHT22;60696;51.426;6.934;2022-11-20T01:24:04;-0.40;99.90
35027;DHT22;60696;51.426;6.934;2022-11-20T01:26:32;-0.50;99.90
35027;DHT22;60696;51.426;6.934;2022-11-20T01:28:59;-0.50;99.90
35027;DHT22;60696;51.426;6.934;2022-11-20T01:31:36;-0.50;99.90
35027;DHT22;60696;51.426;6.934;2022-11-20T01:34:16;-0.50;99.90
35027;DHT22;60696;51.426;6.934;2022-11-20T01:36:42;-0.40;99.90
35027;DHT22;60696;51.426;6.934;2022-11-20T01:39:14;-0.30;99.90
35027;DHT22;60696;51.426;6.934;2022-11-20T01:41:41;-0.30;99.90
35027;DHT22;60696;51.426;6.934;2022-11-20T01:44:54;-0.20;99.90
35027;DHT22;60696;51.426;6.934;2022-11-20T01:47:30;-0.20;99.90
35027;DHT22;60696;51.426;6.934;2022-11-20T01:52:44;0.00;99.90
35027;DHT22;60696;51.426;6.934;2022-11-20T01:55:17;0.10;99.90
35027;DHT22;60696;51.426;6.934;2022-11-20T01:57:45;0.20;99.90
35027;DHT22;60696;51.426;6.934;2022-11-20T02:00:15;0.30;99.90
35027;DHT22;60696;51.426;6.934;2022-11-20T02:02:45;0.40;99.90
35027;DHT22;60696;51.426;6.934;2022-11-20T02:05:32;0.40;99.90
35027;DHT22;60696;51.426;6.934;2022-11-20T02:08:03;0.50;99.90
35027;DHT22;60696;51.426;6.934;2022-11-20T02:10:30;0.50;99.90
35027;DHT22;60696;51.426;6.934;2022-11-20T02:12:56;0.70;99.90
35027;DHT22;60696;51.426;6.934;2022-11-20T02:15:41;0.60;99.90
35027;DHT22;60696;51.426;6.934;2022-11-20T02:18:07;0.60;99.90
35027;DHT22;60696;51.426;6.934;2022-11-20T02:20:34;0.60;99.90
35027;DHT22;60696;51.426;6.934;2022-11-20T02:23:07;0.50;99.90
35027;DHT22;60696;51.426;6.934;2022-11-20T02:25:35;0.50;99.90
35027;DHT22;60696;51.426;6.934;2022-11-20T02:28:02;0.50;99.90
35027;DHT22;60696;51.426;6.934;2022-11-20T02:30:28;0.50;99.90
35027;DHT22;60696;51.426;6.934;2022-11-20T02:32:53;0.50;99.90
35027;DHT22;60696;51.426;6.934;2022-11-20T02:37:47;0.40;99.90
35027;DHT22;60696;51.426;6.934;2022-11-20T02:40:13;0.50;99.90
35027;DHT22;60696;51.426;6.934;2022-11-20T02:42:39;0.40;99.90
35027;DHT22;60696;51.426;6.934;2022-11-20T02:45:06;0.40;99.90
35027;DHT22;60696;51.426;6.934;2022-11-20T02:47:32;0.50;99.90
35027;DHT22;60696;51.426;6.934;2022-11-20T02:49:57;0.50;99.90
35027;DHT22;60696;51.426;6.934;2022-11-20T02:52:23;0.50;99.90
35027;DHT22;60696;51.426;6.934;2022-11-20T02:54:49;0.50;99.90
35027;DHT22;60696;51.426;6.934;2022-11-20T02:57:15;0.40;99.90
35027;DHT22;60696;51.426;6.934;2022-11-20T02:59:40;0.60;99.90
35027;DHT22;60696;51.426;6.934;2022-11-20T03:02:06;0.60;99.90
35027;DHT22;60696;51.426;6.934;2022-11-20T03:04:32;0.70;99.90
35027;DHT22;60696;51.426;6.934;2022-11-20T03:06:57;0.70;99.90
35027;DHT22;60696;51.426;6.934;2022-11-20T03:09:23;0.90;99.90
35027;DHT22;60696;51.426;6.934;2022-11-20T03:11:48;1.00;99.90
35027;DHT22;60696;51.426;6.934;2022-11-20T03:14:14;0.90;99.90
35027;DHT22;60696;51.426;6.934;2022-11-20T03:16:40;0.90;99.90
35027;DHT22;60696;51.426;6.934;2022-11-20T03:19:06;0.90;99.90
35027;DHT22;60696;51.426;6.934;2022-11-20T03:21:33;1.10;99.90
35027;DHT22;60696;51.426;6.934;2022-11-20T03:23:59;1.20;99.90
35027;DHT22;60696;51.426;6.934;2022-11-20T03:26:26;1.40;99.90
35027;DHT22;60696;51.426;6.934;2022-11-20T03:28:53;1.40;99.90
35027;DHT22;60696;51.426;6.934;2022-11-20T03:31:21;1.40;99.90
35027;DHT22;60696;51.426;6.934;2022-11-20T03:33:47;1.40;99.90
35027;DHT22;60696;51.426;6.934;2022-11-20T03:36:14;1.40;99.90
35027;DHT22;60696;51.426;6.934;2022-11-20T03:38:41;1.50;99.90
35027;DHT22;60696;51.426;6.934;2022-11-20T03:41:18;1.50;99.90
35027;DHT22;60696;51.426;6.934;2022-11-20T03:43:51;1.40;99.90
35027;DHT22;60696;51.426;6.934;2022-11-20T03:46:17;1.50;99.90
35027;DHT22;60696;51.426;6.934;2022-11-20T03:48:42;1.60;99.90
35027;DHT22;60696;51.426;6.934;2022-11-20T03:53:41;1.50;99.90
35027;DHT22;60696;51.426;6.934;2022-11-20T03:56:08;1.50;99.90
35027;DHT22;60696;51.426;6.934;2022-11-20T03:58:35;1.60;99.90
35027;DHT22;60696;51.426;6.934;2022-11-20T04:01:12;1.60;99.90
35027;DHT22;60696;51.426;6.934;2022-11-20T04:03:39;1.80;99.90
35027;DHT22;60696;51.426;6.934;2022-11-20T04:06:26;1.80;99.90
35027;DHT22;60696;51.426;6.934;2022-11-20T04:08:54;1.90;99.90
35027;DHT22;60696;51.426;6.934;2022-11-20T04:11:22;1.70;99.90
35027;DHT22;60696;51.426;6.934;2022-11-20T04:13:51;1.60;99.90
35027;DHT22;60696;51.426;6.934;2022-11-20T04:16:17;1.70;99.90
35027;DHT22;60696;51.426;6.934;2022-11-20T04:18:43;1.90;99.90
35027;DHT22;60696;51.426;6.934;2022-11-20T04:21:09;1.80;99.90
35027;DHT22;60696;51.426;6.934;2022-11-20T04:23:35;1.70;99.90
35027;DHT22;60696;51.426;6.934;2022-11-20T04:28:28;1.70;99.90
35027;DHT22;60696;51.426;6.934;2022-11-20T04:30:54;1.70;99.90
35027;DHT22;60696;51.426;6.934;2022-11-20T04:33:19;2.00;99.90
35027;DHT22;60696;51.426;6.934;2022-11-20T04:35:47;2.10;99.90
35027;DHT22;60696;51.426;6.934;2022-11-20T04:38:13;2.10;99.90
35027;DHT22;60696;51.426;6.934;2022-11-20T04:40:38;2.10;99.90
35027;DHT22;60696;51.426;6.934;2022-11-20T04:43:04;2.10;99.90
35027;DHT22;60696;51.426;6.934;2022-11-20T04:45:29;2.10;99.90
35027;DHT22;60696;51.426;6.934;2022-11-20T04:47:55;2.10;99.90
35027;DHT22;60696;51.426;6.934;2022-11-20T04:50:21;2.20;99.90
35027;DHT22;60696;51.426;6.934;2022-11-20T04:52:46;2.10;99.90
35027;DHT22;60696;51.426;6.934;2022-11-20T04:55:12;2.00;99.90
35027;DHT22;60696;51.426;6.934;2022-11-20T04:57:37;2.00;99.90
35027;DHT22;60696;51.426;6.934;2022-11-20T05:00:03;1.90;99.90
35027;DHT22;60696;51.426;6.934;2022-11-20T05:02:30;1.90;99.90
35027;DHT22;60696;51.426;6.934;2022-11-20T05:04:56;2.00;99.90
35027;DHT22;60696;51.426;6.934;2022-11-20T05:07:22;2.10;99.90
35027;DHT22;60696;51.426;6.934;2022-11-20T05:09:47;2.00;99.90
35027;DHT22;60696;51.426;6.934;2022-11-20T05:12:13;2.10;99.90
35027;DHT22;60696;51.426;6.934;2022-11-20T05:14:38;2.10;99.90
35027;DHT22;60696;51.426;6.934;2022-11-20T05:17:04;2.00;99.90
35027;DHT22;60696;51.426;6.934;2022-11-20T05:19:29;2.10;99.90
35027;DHT22;60696;51.426;6.934;2022-11-20T05:21:55;2.10;99.90
35027;DHT22;60696;51.426;6.934;2022-11-20T05:24:20;2.30;99.90
35027;DHT22;60696;51.426;6.934;2022-11-20T05:26:46;2.30;99.90
35027;DHT22;60696;51.426;6.934;2022-11-20T05:29:12;2.40;99.90
35027;DHT22;60696;51.426;6.934;2022-11-20T05:31:39;2.40;99.90
35027;DHT22;60696;51.426;6.934;2022-11-20T05:34:05;2.50;99.90
35027;DHT22;60696;51.426;6.934;2022-11-20T05:36:31;2.60;99.90
35027;DHT22;60696;51.426;6.934;2022-11-20T05:38:57;2.60;99.90
35027;DHT22;60696;51.426;6.934;2022-11-20T05:41:23;2.40;99.90
35027;DHT22;60696;51.426;6.934;2022-11-20T05:43:49;2.40;99.90
35027;DHT22;60696;51.426;6.934;2022-11-20T05:46:17;2.30;99.90
35027;DHT22;60696;51.426;6.934;2022-11-20T05:48:44;2.20;99.90
35027;DHT22;60696;51.426;6.934;2022-11-20T05:51:11;2.10;99.90
35027;DHT22;60696;51.426;6.934;2022-11-20T05:53:37;2.20;99.90
35027;DHT22;60696;51.426;6.934;2022-11-20T05:56:06;2.20;99.90
35027;DHT22;60696;51.426;6.934;2022-11-20T05:58:32;2.30;99.90
35027;DHT22;60696;51.426;6.934;2022-11-20T06:01:09;2.30;99.90
35027;DHT22;60696;51.426;6.934;2022-11-20T06:03:34;2.30;99.90
35027;DHT22;60696;51.426;6.934;2022-11-20T06:06:01;2.30;99.90
35027;DHT22;60696;51.426;6.934;2022-11-20T06:08:27;2.30;99.90
35027;DHT22;60696;51.426;6.934;2022-11-20T06:10:53;2.30;99.90
35027;DHT22;60696;51.426;6.934;2022-11-20T06:13:19;2.50;99.90
35027;DHT22;60696;51.426;6.934;2022-11-20T06:15:51;2.30;99.90
35027;DHT22;60696;51.426;6.934;2022-11-20T06:18:18;2.20;99.90
35027;DHT22;60696;51.426;6.934;2022-11-20T06:20:44;2.20;99.90
35027;DHT22;60696;51.426;6.934;2022-11-20T06:23:10;2.20;99.90
35027;DHT22;60696;51.426;6.934;2022-11-20T06:25:39;2.30;99.90
35027;DHT22;60696;51.426;6.934;2022-11-20T06:28:05;2.10;99.90
35027;DHT22;60696;51.426;6.934;2022-11-20T06:30:31;2.10;99.90
35027;DHT22;60696;51.426;6.934;2022-11-20T06:32:56;2.20;99.90
35027;DHT22;60696;51.426;6.934;2022-11-20T06:35:22;2.10;99.90
35027;DHT22;60696;51.426;6.934;2022-11-20T06:37:48;2.10;99.90
35027;DHT22;60696;51.426;6.934;2022-11-20T06:40:13;2.10;99.90
35027;DHT22;60696;51.426;6.934;2022-11-20T06:42:39;2.20;99.90
35027;DHT22;60696;51.426;6.934;2022-11-20T06:45:05;2.10;99.90
35027;DHT22;60696;51.426;6.934;2022-11-20T06:47:30;2.20;99.90
35027;DHT22;60696;51.426;6.934;2022-11-20T06:49:56;2.10;99.90
35027;DHT22;60696;51.426;6.934;2022-11-20T06:52:21;2.10;99.90
35027;DHT22;60696;51.426;6.934;2022-11-20T06:54:47;2.00;99.90
35027;DHT22;60696;51.426;6.934;2022-11-20T06:57:12;2.00;99.90
35027;DHT22;60696;51.426;6.934;2022-11-20T06:59:38;1.90;99.90
35027;DHT22;60696;51.426;6.934;2022-11-20T07:02:04;2.00;99.90
35027;DHT22;60696;51.426;6.934;2022-11-20T07:04:29;2.00;99.90
35027;DHT22;60696;51.426;6.934;2022-11-20T07:06:55;2.00;99.90
35027;DHT22;60696;51.426;6.934;2022-11-20T07:09:20;2.00;99.90
35027;DHT22;60696;51.426;6.934;2022-11-20T07:11:46;2.00;99.90
35027;DHT22;60696;51.426;6.934;2022-11-20T07:14:11;1.90;99.90
35027;DHT22;60696;51.426;6.934;2022-11-20T07:16:37;2.00;99.90
35027;DHT22;60696;51.426;6.934;2022-11-20T07:19:02;2.00;99.90
35027;DHT22;60696;51.426;6.934;2022-11-20T07:21:28;2.00;99.90
35027;DHT22;60696;51.426;6.934;2022-11-20T07:23:54;2.10;99.90
35027;DHT22;60696;51.426;6.934;2022-11-20T07:26:20;2.10;99.90
35027;DHT22;60696;51.426;6.934;2022-11-20T07:28:46;2.10;99.90
35027;DHT22;60696;51.426;6.934;2022-11-20T07:31:11;2.10;99.90
35027;DHT22;60696;51.426;6.934;2022-11-20T07:33:38;2.10;99.90
35027;DHT22;60696;51.426;6.934;2022-11-20T07:36:04;2.10;99.90
35027;DHT22;60696;51.426;6.934;2022-11-20T07:38:29;2.10;99.90
35027;DHT22;60696;51.426;6.934;2022-11-20T07:40:57;2.10;99.90
35027;DHT22;60696;51.426;6.934;2022-11-20T07:43:24;2.10;99.90
35027;DHT22;60696;51.426;6.934;2022-11-20T07:45:50;2.20;99.90
35027;DHT22;60696;51.426;6.934;2022-11-20T07:48:16;2.30;99.90
35027;DHT22;60696;51.426;6.934;2022-11-20T07:50:41;2.30;99.90
35027;DHT22;60696;51.426;6.934;2022-11-20T07:53:07;2.40;99.90
35027;DHT22;60696;51.426;6.934;2022-11-20T07:55:33;2.30;99.90
35027;DHT22;60696;51.426;6.934;2022-11-20T07:57:59;2.40;99.90
35027;DHT22;60696;51.426;6.934;2022-11-20T08:00:25;2.60;99.90
35027;DHT22;60696;51.426;6.934;2022-11-20T08:02:51;2.90;99.90
35027;DHT22;60696;51.426;6.934;2022-11-20T08:05:17;2.90;99.90
35027;DHT22;60696;51.426;6.934;2022-11-20T08:07:43;2.90;99.90
35027;DHT22;60696;51.426;6.934;2022-11-20T08:10:11;2.90;99.90
35027;DHT22;60696;51.426;6.934;2022-11-20T08:12:44;3.10;99.90
35027;DHT22;60696;51.426;6.934;2022-11-20T08:15:28;3.70;99.90
35027;DHT22;60696;51.426;6.934;2022-11-20T08:18:03;4.30;99.90
35027;DHT22;60696;51.426;6.934;2022-11-20T08:20:29;4.60;99.90
35027;DHT22;60696;51.426;6.934;2022-11-20T08:22:58;5.00;99.90
35027;DHT22;60696;51.426;6.934;2022-11-20T08:25:25;5.20;83.70
35027;DHT22;60696;51.426;6.934;2022-11-20T08:27:51;5.00;84.90
35027;DHT22;60696;51.426;6.934;2022-11-20T08:30:16;4.80;53.70
35027;DHT22;60696;51.426;6.934;2022-11-20T08:32:42;4.70;80.90
35027;DHT22;60696;51.426;6.934;2022-11-20T08:35:08;4.70;92.10
35027;DHT22;60696;51.426;6.934;2022-11-20T08:37:34;4.80;79.40
35027;DHT22;60696;51.426;6.934;2022-11-20T08:39:59;4.80;89.40
35027;DHT22;60696;51.426;6.934;2022-11-20T08:42:25;4.80;81.70
35027;DHT22;60696;51.426;6.934;2022-11-20T08:44:50;4.70;79.10
35027;DHT22;60696;51.426;6.934;2022-11-20T08:47:16;4.50;83.40
35027;DHT22;60696;51.426;6.934;2022-11-20T08:49:41;4.30;95.20
35027;DHT22;60696;51.426;6.934;2022-11-20T08:52:07;4.20;99.90
35027;DHT22;60696;51.426;6.934;2022-11-20T08:54:33;4.10;99.90
35027;DHT22;60696;51.426;6.934;2022-11-20T08:56:58;4.10;99.90
35027;DHT22;60696;51.426;6.934;2022-11-20T08:59:24;4.10;99.90
35027;DHT22;60696;51.426;6.934;2022-11-20T09:01:49;4.00;99.90
35027;DHT22;60696;51.426;6.934;2022-11-20T09:04:15;4.20;99.90
35027;DHT22;60696;51.426;6.934;2022-11-20T09:06:41;4.20;99.90
35027;DHT22;60696;51.426;6.934;2022-11-20T09:09:06;4.10;99.90
35027;DHT22;60696;51.426;6.934;2022-11-20T09:11:32;4.20;99.90
35027;DHT22;60696;51.426;6.934;2022-11-20T09:13:58;4.30;99.90
35027;DHT22;60696;51.426;6.934;2022-11-20T09:16:23;4.20;99.90
35027;DHT22;60696;51.426;6.934;2022-11-20T09:18:50;4.20;99.90
35027;DHT22;60696;51.426;6.934;2022-11-20T09:21:16;4.20;99.90
35027;DHT22;60696;51.426;6.934;2022-11-20T09:23:42;4.10;99.90
35027;DHT22;60696;51.426;6.934;2022-11-20T09:26:10;4.20;99.90
35027;DHT22;60696;51.426;6.934;2022-11-20T09:28:36;4.40;99.90
35027;DHT22;60696;51.426;6.934;2022-11-20T09:31:11;4.40;99.90
35027;DHT22;60696;51.426;6.934;2022-11-20T09:33:39;4.50;99.90
35027;DHT22;60696;51.426;6.934;2022-11-20T09:36:08;4.50;99.90
35027;DHT22;60696;51.426;6.934;2022-11-20T09:38:34;4.60;99.90
35027;DHT22;60696;51.426;6.934;2022-11-20T09:41:05;4.80;99.10
35027;DHT22;60696;51.426;6.934;2022-11-20T09:44:01;5.60;92.80
35027;DHT22;60696;51.426;6.934;2022-11-20T09:52:30;7.90;1.00
35027;DHT22;60696;51.426;6.934;2022-11-20T09:54:58;8.00;1.00
35027;DHT22;60696;51.426;6.934;2022-11-20T09:57:34;8.80;1.00
35027;DHT22;60696;51.426;6.934;2022-11-20T10:00:03;10.40;1.00
35027;DHT22;60696;51.426;6.934;2022-11-20T10:02:55;11.20;99.90
35027;DHT22;60696;51.426;6.934;2022-11-20T10:05:46;12.20;99.90
35027;DHT22;60696;51.426;6.934;2022-11-20T10:14:20;15.60;75.30
35027;DHT22;60696;51.426;6.934;2022-11-20T10:25:39;10.10;98.70
35027;DHT22;60696;51.426;6.934;2022-11-20T10:28:22;9.40;99.90
35027;DHT22;60696;51.426;6.934;2022-11-20T10:30:59;8.60;99.90
35027;DHT22;60696;51.426;6.934;2022-11-20T10:33:29;8.00;99.90
35027;DHT22;60696;51.426;6.934;2022-11-20T10:36:21;7.80;99.90
35027;DHT22;60696;51.426;6.934;2022-11-20T10:38:56;7.60;99.90
35027;DHT22;60696;51.426;6.934;2022-11-20T10:41:27;7.20;1.00
35027;DHT22;60696;51.426;6.934;2022-11-20T10:47:16;6.60;1.00
35027;DHT22;60696;51.426;6.934;2022-11-20T10:49:44;6.30;1.00
35027;DHT22;60696;51.426;6.934;2022-11-20T10:58:10;6.10;1.00
35027;DHT22;60696;51.426;6.934;2022-11-20T11:00:38;5.80;1.00
35027;DHT22;60696;51.426;6.934;2022-11-20T11:03:27;5.70;16.90
35027;DHT22;60696;51.426;6.934;2022-11-20T11:06:07;5.90;24.50
35027;DHT22;60696;51.426;6.934;2022-11-20T11:08:41;6.00;25.00
35027;DHT22;60696;51.426;6.934;2022-11-20T11:11:23;5.90;1.00
35027;DHT22;60696;51.426;6.934;2022-11-20T11:13:50;5.70;5.00
35027;DHT22;60696;51.426;6.934;2022-11-20T11:16:26;5.60;3.10
35027;DHT22;60696;51.426;6.934;2022-11-20T11:19:04;5.60;30.90
35027;DHT22;60696;51.426;6.934;2022-11-20T11:21:29;5.70;28.60
35027;DHT22;60696;51.426;6.934;2022-11-20T11:24:03;5.90;19.90
35027;DHT22;60696;51.426;6.934;2022-11-20T11:26:29;6.00;26.70
35027;DHT22;60696;51.426;6.934;2022-11-20T11:29:00;6.00;23.10
35027;DHT22;60696;51.426;6.934;2022-11-20T11:31:28;5.80;22.10
35027;DHT22;60696;51.426;6.934;2022-11-20T11:34:23;5.70;23.20
35027;DHT22;60696;51.426;6.934;2022-11-20T11:36:59;5.60;23.50
35027;DHT22;60696;51.426;6.934;2022-11-20T11:39:27;5.40;32.00
35027;DHT22;60696;51.426;6.934;2022-11-20T11:41:54;5.40;34.00
35027;DHT22;60696;51.426;6.934;2022-11-20T11:44:28;5.30;59.50
35027;DHT22;60696;51.426;6.934;2022-11-20T11:49:48;5.10;57.00
35027;DHT22;60696;51.426;6.934;2022-11-20T11:52:18;5.20;64.70
35027;DHT22;60696;51.426;6.934;2022-11-20T11:54:53;5.30;67.50
35027;DHT22;60696;51.426;6.934;2022-11-20T11:57:24;5.30;62.30
35027;DHT22;60696;51.426;6.934;2022-11-20T12:00:10;5.50;51.10
35027;DHT22;60696;51.426;6.934;2022-11-20T12:05:21;5.50;39.10
35027;DHT22;60696;51.426;6.934;2022-11-20T12:13:08;5.30;73.90
35027;DHT22;60696;51.426;6.934;2022-11-20T12:15:35;5.40;69.30
35027;DHT22;60696;51.426;6.934;2022-11-20T12:18:18;5.30;69.10
35027;DHT22;60696;51.426;6.934;2022-11-20T12:32:17;5.10;74.40
35027;DHT22;60696;51.426;6.934;2022-11-20T12:43:21;5.00;88.70
35027;DHT22;60696;51.426;6.934;2022-11-20T12:46:43;5.00;93.30
35027;DHT22;60696;51.426;6.934;2022-11-20T12:49:38;5.10;94.40
35027;DHT22;60696;51.426;6.934;2022-11-20T12:52:20;5.20;93.40
35027;DHT22;60696;51.426;6.934;2022-11-20T12:57:29;5.00;93.60
35027;DHT22;60696;51.426;6.934;2022-11-20T13:00:12;5.10;89.80
35027;DHT22;60696;51.426;6.934;2022-11-20T13:03:15;5.20;96.20
35027;DHT22;60696;51.426;6.934;2022-11-20T13:08:34;5.00;90.10
35027;DHT22;60696;51.426;6.934;2022-11-20T13:16:50;5.30;91.80
35027;DHT22;60696;51.426;6.934;2022-11-20T13:19:18;5.20;86.40
35027;DHT22;60696;51.426;6.934;2022-11-20T13:21:46;5.20;95.60
35027;DHT22;60696;51.426;6.934;2022-11-20T13:24:26;5.30;90.90
35027;DHT22;60696;51.426;6.934;2022-11-20T13:29:44;5.20;99.20
35027;DHT22;60696;51.426;6.934;2022-11-20T13:32:17;5.20;99.90
35027;DHT22;60696;51.426;6.934;2022-11-20T13:34:55;5.20;99.90
35027;DHT22;60696;51.426;6.934;2022-11-20T13:37:28;5.40;98.80
35027;DHT22;60696;51.426;6.934;2022-11-20T13:42:43;5.40;94.70
35027;DHT22;60696;51.426;6.934;2022-11-20T13:45:21;5.20;99.90
35027;DHT22;60696;51.426;6.934;2022-11-20T13:47:52;5.20;99.90
35027;DHT22;60696;51.426;6.934;2022-11-20T13:50:18;5.00;99.90
35027;DHT22;60696;51.426;6.934;2022-11-20T13:55:54;5.10;99.90
35027;DHT22;60696;51.426;6.934;2022-11-20T13:58:36;5.10;99.90
35027;DHT22;60696;51.426;6.934;2022-11-20T14:01:23;5.10;99.90
35027;DHT22;60696;51.426;6.934;2022-11-20T14:03:49;5.20;99.90
35027;DHT22;60696;51.426;6.934;2022-11-20T14:06:32;5.20;99.90
35027;DHT22;60696;51.426;6.934;2022-11-20T14:08:59;5.10;99.90
35027;DHT22;60696;51.426;6.934;2022-11-20T14:11:27;4.90;99.90
35027;DHT22;60696;51.426;6.934;2022-11-20T14:16:40;4.80;99.90
35027;DHT22;60696;51.426;6.934;2022-11-20T14:19:36;4.80;99.90
35027;DHT22;60696;51.426;6.934;2022-11-20T14:22:10;4.90;99.90
35027;DHT22;60696;51.426;6.934;2022-11-20T14:24:36;4.90;99.90
35027;DHT22;60696;51.426;6.934;2022-11-20T14:27:02;4.90;99.90
35027;DHT22;60696;51.426;6.934;2022-11-20T14:29:33;4.90;99.90
35027;DHT22;60696;51.426;6.934;2022-11-20T14:32:01;4.90;99.90
35027;DHT22;60696;51.426;6.934;2022-11-20T14:34:29;4.90;99.90
35027;DHT22;60696;51.426;6.934;2022-11-20T14:36:58;5.00;99.90
35027;DHT22;60696;51.426;6.934;2022-11-20T14:39:41;4.90;99.90
35027;DHT22;60696;51.426;6.934;2022-11-20T14:42:19;4.90;99.90
35027;DHT22;60696;51.426;6.934;2022-11-20T14:44:45;4.80;99.90
35027;DHT22;60696;51.426;6.934;2022-11-20T14:47:18;4.90;99.90
35027;DHT22;60696;51.426;6.934;2022-11-20T14:49:45;4.90;99.90
35027;DHT22;60696;51.426;6.934;2022-11-20T14:52:29;4.90;99.90
35027;DHT22;60696;51.426;6.934;2022-11-20T14:54:57;4.80;99.90
35027;DHT22;60696;51.426;6.934;2022-11-20T14:57:29;4.80;99.90
35027;DHT22;60696;51.426;6.934;2022-11-20T15:02:32;4.80;99.90
35027;DHT22;60696;51.426;6.934;2022-11-20T15:05:00;4.70;99.90
35027;DHT22;60696;51.426;6.934;2022-11-20T15:07:46;4.70;99.90
35027;DHT22;60696;51.426;6.934;2022-11-20T15:10:26;4.70;99.90
35027;DHT22;60696;51.426;6.934;2022-11-20T15:13:04;4.70;99.90
35027;DHT22;60696;51.426;6.934;2022-11-20T15:15:54;4.60;99.90
35027;DHT22;60696;51.426;6.934;2022-11-20T15:18:23;4.60;99.90
35027;DHT22;60696;51.426;6.934;2022-11-20T15:20:51;4.50;99.90
35027;DHT22;60696;51.426;6.934;2022-11-20T15:23:18;4.40;99.90
35027;DHT22;60696;51.426;6.934;2022-11-20T15:25:44;4.40;99.90
35027;DHT22;60696;51.426;6.934;2022-11-20T15:28:18;4.40;99.90
35027;DHT22;60696;51.426;6.934;2022-11-20T15:30:45;4.40;99.90
35027;DHT22;60696;51.426;6.934;2022-11-20T15:33:11;4.40;99.90
35027;DHT22;60696;51.426;6.934;2022-11-20T15:35:38;4.30;99.90
35027;DHT22;60696;51.426;6.934;2022-11-20T15:38:03;4.40;99.90
35027;DHT22;60696;51.426;6.934;2022-11-20T15:40:29;4.30;99.90
35027;DHT22;60696;51.426;6.934;2022-11-20T15:42:54;4.40;99.90
35027;DHT22;60696;51.426;6.934;2022-11-20T15:46:02;4.50;99.90
35027;DHT22;60696;51.426;6.934;2022-11-20T15:48:39;4.50;99.90
35027;DHT22;60696;51.426;6.934;2022-11-20T15:51:11;4.50;99.90
35027;DHT22;60696;51.426;6.934;2022-11-20T15:53:41;4.60;99.90
35027;DHT22;60696;51.426;6.934;2022-11-20T15:56:14;4.60;99.90
35027;DHT22;60696;51.426;6.934;2022-11-20T15:58:40;4.60;99.90
35027;DHT22;60696;51.426;6.934;2022-11-20T16:01:11;4.70;99.90
35027;DHT22;60696;51.426;6.934;2022-11-20T16:03:37;4.70;99.90
35027;DHT22;60696;51.426;6.934;2022-11-20T16:06:02;4.80;99.90
35027;DHT22;60696;51.426;6.934;2022-11-20T16:08:28;4.70;99.90
35027;DHT22;60696;51.426;6.934;2022-11-20T16:10:54;4.70;99.90
35027;DHT22;60696;51.426;6.934;2022-11-20T16:13:19;4.70;99.90
35027;DHT22;60696;51.426;6.934;2022-11-20T16:16:07;4.70;99.90
35027;DHT22;60696;51.426;6.934;2022-11-20T16:18:37;4.70;99.90
35027;DHT22;60696;51.426;6.934;2022-11-20T16:21:03;4.80;99.90
35027;DHT22;60696;51.426;6.934;2022-11-20T16:23:29;4.90;99.90
35027;DHT22;60696;51.426;6.934;2022-11-20T16:25:56;4.90;99.90
35027;DHT22;60696;51.426;6.934;2022-11-20T16:28:22;4.90;99.90
35027;DHT22;60696;51.426;6.934;2022-11-20T16:30:49;4.90;99.90
35027;DHT22;60696;51.426;6.934;2022-11-20T16:33:16;4.90;99.90
35027;DHT22;60696;51.426;6.934;2022-11-20T16:35:43;5.00;99.90
35027;DHT22;60696;51.426;6.934;2022-11-20T16:38:09;5.00;99.90
35027;DHT22;60696;51.426;6.934;2022-11-20T16:40:35;5.00;99.90
35027;DHT22;60696;51.426;6.934;2022-11-20T16:43:12;5.00;99.90
35027;DHT22;60696;51.426;6.934;2022-11-20T16:45:42;5.00;99.90
35027;DHT22;60696;51.426;6.934;2022-11-20T16:48:13;5.00;99.90
35027;DHT22;60696;51.426;6.934;2022-11-20T16:50:51;5.00;99.90
35027;DHT22;60696;51.426;6.934;2022-11-20T16:53:20;5.00;99.90
35027;DHT22;60696;51.426;6.934;2022-11-20T16:55:47;5.10;99.90
35027;DHT22;60696;51.426;6.934;2022-11-20T16:58:14;5.20;99.90
35027;DHT22;60696;51.426;6.934;2022-11-20T17:00:40;5.20;99.90
35027;DHT22;60696;51.426;6.934;2022-11-20T17:03:06;5.20;99.90
35027;DHT22;60696;51.426;6.934;2022-11-20T17:05:33;5.30;99.90
35027;DHT22;60696;51.426;6.934;2022-11-20T17:07:59;5.20;99.90
35027;DHT22;60696;51.426;6.934;2022-11-20T17:10:25;5.20;99.90
35027;DHT22;60696;51.426;6.934;2022-11-20T17:12:51;5.30;99.90
35027;DHT22;60696;51.426;6.934;2022-11-20T17:15:17;5.30;99.90
35027;DHT22;60696;51.426;6.934;2022-11-20T17:17:42;5.20;99.90
35027;DHT22;60696;51.426;6.934;2022-11-20T17:20:09;5.20;99.90
35027;DHT22;60696;51.426;6.934;2022-11-20T17:22:34;5.20;99.90
35027;DHT22;60696;51.426;6.934;2022-11-20T17:25:00;5.30;99.90
35027;DHT22;60696;51.426;6.934;2022-11-20T17:27:26;5.30;99.90
35027;DHT22;60696;51.426;6.934;2022-11-20T17:29:51;5.30;99.90
35027;DHT22;60696;51.426;6.934;2022-11-20T17:32:19;5.30;99.90
35027;DHT22;60696;51.426;6.934;2022-11-20T17:34:45;5.30;99.90